Time;durP1;ratioP1;P1;durP2;ratioP2;P2;SDS_P1;SDS_P2;PMS_P1;PMS_P2;Temp;Humidity;BMP_temperature;BMP_pressure;BME280_temperature;BME280_humidity;BME280_pressure;Samples;Min_cycle;Max_cycle;Signal;HPM_P1;HPM_P2
2021/09/03 00:00:53;;;;;;;21.85;12.23;;;;;;;;;;5085185;28;20020;-86
2021/09/03 00:03:18;;;;;;;20.15;11.80;;;;;;;;;;5085210;28;20021;-86
2021/09/03 00:05:43;;;;;;;21.58;12.35;;;;;;;;;;5085171;28;20036;-86
2021/09/03 00:08:09;;;;;;;21.73;12.02;;;;;;;;;;5085160;28;20408;-86
2021/09/03 00:10:34;;;;;;;25.08;12.50;;;;;;;;;;5051181;28;20113;-85
2021/09/03 00:12:59;;;;;;;32.38;13.57;;;;;;;;;;5053325;28;20020;-86
2021/09/03 00:15:24;;;;;;;26.45;13.77;;;;;;;;;;5052610;28;20025;-86
2021/09/03 00:17:50;;;;;;;23.17;13.70;;;;;;;;;;5085167;28;20021;-86
2021/09/03 00:20:15;;;;;;;24.58;12.55;;;;;;;;;;5085120;28;20021;-86
2021/09/03 00:22:41;;;;;;;22.13;12.93;;;;;;;;;;5052302;28;20460;-86
2021/09/03 00:25:07;;;;;;;27.98;14.32;;;;;;;;;;5083589;28;20017;-85
2021/09/03 00:27:33;;;;;;;21.25;12.63;;;;;;;;;;5089230;28;20067;-86
2021/09/03 00:29:58;;;;;;;16.77;10.80;;;;;;;;;;5087479;28;20021;-86
2021/09/03 00:32:23;;;;;;;24.67;12.35;;;;;;;;;;5056806;28;20020;-86
2021/09/03 00:34:48;;;;;;;24.48;13.05;;;;;;;;;;5088936;28;20017;-86
2021/09/03 00:37:14;;;;;;;21.73;12.32;;;;;;;;;;5088875;28;20029;-86
2021/09/03 00:39:39;;;;;;;24.50;13.82;;;;;;;;;;5088841;28;20051;-85
2021/09/03 00:42:09;;;;;;;23.08;12.57;;;;;;;;;;5055139;28;20357;-85
2021/09/03 00:44:34;;;;;;;22.83;12.70;;;;;;;;;;5054739;28;20032;-86
2021/09/03 00:46:59;;;;;;;22.55;12.77;;;;;;;;;;5055025;28;20017;-86
2021/09/03 00:49:24;;;;;;;21.48;11.68;;;;;;;;;;5056494;28;20083;-86
2021/09/03 00:51:50;;;;;;;23.60;12.70;;;;;;;;;;5056596;28;20510;-86
2021/09/03 00:54:15;;;;;;;24.23;11.93;;;;;;;;;;5088554;28;20108;-85
2021/09/03 00:56:40;;;;;;;23.00;12.45;;;;;;;;;;5088396;28;20403;-86
2021/09/03 00:59:05;;;;;;;26.20;13.00;;;;;;;;;;5088705;28;20067;-86
2021/09/03 01:01:31;;;;;;;22.05;11.52;;;;;;;;;;5088684;28;20013;-86
2021/09/03 01:03:56;;;;;;;22.42;13.30;;;;;;;;;;5055875;28;20013;-85
2021/09/03 01:06:21;;;;;;;24.33;12.20;;;;;;;;;;5088298;28;20496;-86
2021/09/03 01:08:46;;;;;;;22.30;12.00;;;;;;;;;;5054449;28;20025;-85
2021/09/03 01:11:12;;;;;;;21.02;11.48;;;;;;;;;;5056077;28;20031;-86
2021/09/03 01:13:37;;;;;;;23.63;12.18;;;;;;;;;;5088228;28;20145;-85
2021/09/03 01:16:02;;;;;;;30.20;13.27;;;;;;;;;;5080382;28;20080;-86
2021/09/03 01:18:28;;;;;;;24.92;12.43;;;;;;;;;;5055879;28;20094;-86
2021/09/03 01:20:53;;;;;;;21.40;12.07;;;;;;;;;;5054739;28;20095;-86
2021/09/03 01:23:18;;;;;;;25.80;13.25;;;;;;;;;;5088164;28;20155;-86
2021/09/03 01:25:44;;;;;;;23.23;11.98;;;;;;;;;;5055744;28;20159;-86
2021/09/03 01:28:09;;;;;;;17.05;10.90;;;;;;;;;;5088288;28;20021;-86
2021/09/03 01:30:34;;;;;;;24.42;11.82;;;;;;;;;;5055872;28;20017;-86
2021/09/03 01:33:00;;;;;;;24.77;12.35;;;;;;;;;;5056049;28;20024;-86
2021/09/03 01:35:25;;;;;;;21.13;12.63;;;;;;;;;;5055065;28;20119;-86
2021/09/03 01:37:50;;;;;;;23.98;12.35;;;;;;;;;;5053105;28;20451;-86
2021/09/03 01:40:16;;;;;;;24.20;13.10;;;;;;;;;;5053984;28;20027;-86
2021/09/03 01:42:41;;;;;;;26.67;12.75;;;;;;;;;;5055613;28;20036;-86
2021/09/03 01:45:06;;;;;;;22.88;11.65;;;;;;;;;;5055319;28;20021;-86
2021/09/03 01:47:32;;;;;;;21.40;12.15;;;;;;;;;;5087895;28;20028;-87
2021/09/03 01:49:57;;;;;;;23.23;11.45;;;;;;;;;;5087683;28;20025;-86
2021/09/03 01:52:22;;;;;;;20.90;11.80;;;;;;;;;;5054067;28;20021;-86
2021/09/03 01:54:48;;;;;;;24.73;12.73;;;;;;;;;;5087738;28;20052;-86
2021/09/03 01:57:13;;;;;;;26.90;13.68;;;;;;;;;;5055154;28;20051;-86
2021/09/03 01:59:38;;;;;;;35.35;14.38;;;;;;;;;;5055235;28;20096;-86
2021/09/03 02:02:03;;;;;;;33.03;13.90;;;;;;;;;;5087508;28;20380;-86
2021/09/03 02:04:28;;;;;;;28.10;14.18;;;;;;;;;;5087095;28;20031;-86
2021/09/03 02:06:54;;;;;;;29.15;13.35;;;;;;;;;;5053667;28;20028;-86
2021/09/03 02:09:19;;;;;;;28.35;13.30;;;;;;;;;;5054764;28;20021;-85
2021/09/03 02:11:44;;;;;;;25.70;13.50;;;;;;;;;;5053652;28;20025;-86
2021/09/03 02:14:09;;;;;;;28.40;12.88;;;;;;;;;;5087092;28;20104;-86
2021/09/03 02:16:34;;;;;;;30.35;14.25;;;;;;;;;;5054859;28;20674;-86
2021/09/03 02:19:00;;;;;;;29.77;13.85;;;;;;;;;;5054459;28;20013;-85
2021/09/03 02:21:25;;;;;;;31.05;14.18;;;;;;;;;;5054870;28;20021;-86
2021/09/03 02:23:50;;;;;;;32.45;13.38;;;;;;;;;;5086649;28;20017;-86
2021/09/03 02:26:16;;;;;;;27.75;13.05;;;;;;;;;;5054470;28;20036;-86
2021/09/03 02:28:41;;;;;;;27.85;12.43;;;;;;;;;;5054985;28;20096;-86
2021/09/03 02:31:06;;;;;;;29.38;13.63;;;;;;;;;;5054044;28;20029;-86
2021/09/03 02:33:31;;;;;;;31.13;14.95;;;;;;;;;;5068896;28;20056;-86
2021/09/03 02:35:56;;;;;;;25.55;11.57;;;;;;;;;;5074360;28;20460;-86
2021/09/03 02:38:22;;;;;;;30.52;13.00;;;;;;;;;;5072876;28;20074;-86
2021/09/03 02:40:47;;;;;;;30.65;14.02;;;;;;;;;;5073188;28;20012;-86
2021/09/03 02:43:12;;;;;;;25.23;12.98;;;;;;;;;;5072933;28;20023;-86
2021/09/03 02:45:37;;;;;;;27.05;13.50;;;;;;;;;;5073059;28;20024;-86
2021/09/03 02:48:03;;;;;;;27.95;14.15;;;;;;;;;;5071280;28;20017;-86
2021/09/03 02:50:29;;;;;;;30.23;12.85;;;;;;;;;;5058697;28;20024;-86
2021/09/03 02:52:56;;;;;;;28.45;13.00;;;;;;;;;;5072839;28;20024;-86
2021/09/03 02:55:21;;;;;;;23.48;12.85;;;;;;;;;;5073790;28;20039;-86
2021/09/03 02:57:46;;;;;;;31.08;13.48;;;;;;;;;;5060818;28;20414;-86
2021/09/03 03:00:12;;;;;;;34.08;15.32;;;;;;;;;;5072295;28;20079;-85
2021/09/03 03:02:37;;;;;;;31.58;13.98;;;;;;;;;;5073877;28;20486;-86
2021/09/03 03:05:02;;;;;;;31.95;15.48;;;;;;;;;;5072463;28;20361;-86
2021/09/03 03:07:28;;;;;;;31.92;14.35;;;;;;;;;;5072563;28;20021;-86
2021/09/03 03:09:53;;;;;;;33.35;14.80;;;;;;;;;;5072349;28;20024;-86
2021/09/03 03:12:21;;;;;;;29.88;13.38;;;;;;;;;;5057462;28;20048;-86
2021/09/03 03:14:47;;;;;;;29.95;13.00;;;;;;;;;;5072507;28;20013;-86
2021/09/03 03:17:12;;;;;;;35.30;14.38;;;;;;;;;;5072260;28;20028;-86
2021/09/03 03:19:38;;;;;;;35.00;13.68;;;;;;;;;;5059326;28;20016;-86
2021/09/03 03:22:03;;;;;;;30.05;13.93;;;;;;;;;;5072286;28;20021;-86
2021/09/03 03:24:29;;;;;;;37.85;14.85;;;;;;;;;;5073542;28;20372;-85
2021/09/03 03:26:55;;;;;;;32.75;13.32;;;;;;;;;;5072132;28;20551;-86
2021/09/03 03:29:21;;;;;;;32.92;13.90;;;;;;;;;;5073171;28;20028;-86
2021/09/03 03:31:46;;;;;;;30.27;13.70;;;;;;;;;;5071982;28;20021;-86
2021/09/03 03:34:11;;;;;;;31.92;13.13;;;;;;;;;;5071896;28;20391;-86
2021/09/03 03:36:36;;;;;;;32.38;14.13;;;;;;;;;;5071664;28;20021;-86
2021/09/03 03:39:02;;;;;;;40.00;14.18;;;;;;;;;;5073119;28;20017;-86
2021/09/03 03:41:27;;;;;;;31.58;13.80;;;;;;;;;;5064987;28;20466;-85
2021/09/03 03:43:53;;;;;;;30.80;13.10;;;;;;;;;;5071997;28;20013;-86
2021/09/03 03:46:18;;;;;;;36.95;13.35;;;;;;;;;;5072013;28;20021;-85
2021/09/03 03:48:43;;;;;;;31.90;14.10;;;;;;;;;;5072941;28;20028;-86
2021/09/03 03:51:08;;;;;;;36.58;13.60;;;;;;;;;;5071988;28;20475;-86
2021/09/03 03:53:33;;;;;;;34.55;14.60;;;;;;;;;;5058882;28;20017;-85
2021/09/03 03:55:59;;;;;;;46.03;15.20;;;;;;;;;;5073126;28;20024;-86
2021/09/03 03:58:24;;;;;;;36.15;14.93;;;;;;;;;;5057633;28;20025;-86
2021/09/03 04:00:49;;;;;;;32.95;13.50;;;;;;;;;;5071055;28;20020;-86
2021/09/03 04:03:14;;;;;;;43.83;15.80;;;;;;;;;;5072860;28;20426;-86
2021/09/03 04:05:40;;;;;;;30.92;14.25;;;;;;;;;;5071125;28;20020;-85
2021/09/03 04:08:05;;;;;;;35.28;14.40;;;;;;;;;;5064260;28;20029;-85
2021/09/03 04:10:30;;;;;;;30.95;14.27;;;;;;;;;;5071471;28;20020;-86
2021/09/03 04:12:55;;;;;;;36.92;14.27;;;;;;;;;;5071466;28;20028;-86
2021/09/03 04:15:21;;;;;;;26.13;11.48;;;;;;;;;;5070197;28;20383;-86
2021/09/03 04:17:46;;;;;;;39.83;13.70;;;;;;;;;;5058580;28;20029;-86
2021/09/03 04:20:11;;;;;;;27.33;12.48;;;;;;;;;;5072945;28;20020;-86
2021/09/03 04:22:37;;;;;;;27.42;12.50;;;;;;;;;;5072621;28;20017;-85
2021/09/03 04:25:03;;;;;;;29.85;13.18;;;;;;;;;;5072820;28;20484;-86
2021/09/03 04:27:28;;;;;;;31.25;13.40;;;;;;;;;;5071167;28;20111;-86
2021/09/03 04:29:53;;;;;;;29.73;13.50;;;;;;;;;;5071478;28;20158;-86
2021/09/03 04:32:18;;;;;;;32.95;13.30;;;;;;;;;;5072178;28;20376;-85
2021/09/03 04:34:44;;;;;;;36.00;13.57;;;;;;;;;;5071717;28;20075;-86
2021/09/03 04:37:09;;;;;;;32.97;14.05;;;;;;;;;;5058620;28;20435;-86
2021/09/03 04:39:34;;;;;;;33.28;13.82;;;;;;;;;;5070909;28;20021;-86
2021/09/03 04:41:59;;;;;;;26.20;13.40;;;;;;;;;;5071333;28;20108;-85
2021/09/03 04:44:24;;;;;;;30.77;12.98;;;;;;;;;;5071297;28;20028;-86
2021/09/03 04:46:50;;;;;;;31.10;14.23;;;;;;;;;;5072257;28;20012;-86
2021/09/03 04:49:15;;;;;;;37.00;14.23;;;;;;;;;;5072200;28;20063;-86
2021/09/03 04:51:40;;;;;;;33.95;15.65;;;;;;;;;;5072248;28;20021;-86
2021/09/03 04:54:05;;;;;;;29.30;14.57;;;;;;;;;;5072324;28;20016;-86
2021/09/03 04:56:31;;;;;;;27.70;14.55;;;;;;;;;;5071108;28;20468;-85
2021/09/03 04:58:56;;;;;;;28.42;14.10;;;;;;;;;;5072580;28;20019;-86
2021/09/03 05:01:21;;;;;;;33.92;15.43;;;;;;;;;;5060223;28;20159;-86
2021/09/03 05:03:48;;;;;;;26.73;14.07;;;;;;;;;;5068871;28;20047;-85
2021/09/03 05:06:13;;;;;;;30.05;14.65;;;;;;;;;;5071083;28;20460;-86
2021/09/03 05:08:38;;;;;;;32.75;14.77;;;;;;;;;;5070952;28;20031;-86
2021/09/03 05:11:03;;;;;;;30.25;14.65;;;;;;;;;;5064964;28;20041;-86
2021/09/03 05:13:29;;;;;;;33.38;15.18;;;;;;;;;;5054686;28;20041;-86
2021/09/03 05:15:54;;;;;;;29.42;14.13;;;;;;;;;;5074416;28;20016;-86
2021/09/03 05:18:19;;;;;;;31.08;13.85;;;;;;;;;;5074797;28;20051;-85
2021/09/03 05:20:44;;;;;;;24.55;13.43;;;;;;;;;;5074593;28;20013;-86
2021/09/03 05:23:10;;;;;;;27.48;13.30;;;;;;;;;;5074244;28;20052;-86
2021/09/03 05:25:35;;;;;;;26.75;13.65;;;;;;;;;;5075513;28;20063;-86
2021/09/03 05:28:00;;;;;;;28.00;14.48;;;;;;;;;;5074557;28;20009;-86
2021/09/03 05:30:25;;;;;;;33.10;14.80;;;;;;;;;;5073820;28;20421;-86
2021/09/03 05:32:52;;;;;;;26.67;14.45;;;;;;;;;;5073628;28;20474;-86
2021/09/03 05:35:18;;;;;;;31.83;15.82;;;;;;;;;;5075514;28;20052;-86
2021/09/03 05:37:43;;;;;;;32.45;15.57;;;;;;;;;;5075252;28;20043;-86
2021/09/03 05:40:09;;;;;;;30.17;14.90;;;;;;;;;;5074289;28;20017;-86
2021/09/03 05:42:34;;;;;;;33.08;16.00;;;;;;;;;;5075133;28;20017;-86
2021/09/03 05:44:59;;;;;;;30.67;16.00;;;;;;;;;;5074147;28;20009;-86
2021/09/03 05:47:24;;;;;;;26.15;15.32;;;;;;;;;;5074167;28;20824;-86
2021/09/03 05:49:50;;;;;;;27.58;15.15;;;;;;;;;;5073744;28;20028;-86
2021/09/03 05:52:15;;;;;;;29.85;14.75;;;;;;;;;;5074016;28;20021;-86
2021/09/03 05:54:40;;;;;;;32.15;16.33;;;;;;;;;;5075275;28;20017;-85
2021/09/03 05:57:06;;;;;;;36.45;16.67;;;;;;;;;;5064867;28;20434;-86
2021/09/03 05:59:31;;;;;;;29.13;16.38;;;;;;;;;;5073990;28;20518;-86
2021/09/03 06:01:56;;;;;;;33.22;17.25;;;;;;;;;;5064754;28;20456;-86
2021/09/03 06:04:22;;;;;;;30.70;16.45;;;;;;;;;;5064210;28;20017;-86
2021/09/03 06:06:47;;;;;;;35.65;17.00;;;;;;;;;;5064094;28;20064;-85
2021/09/03 06:09:12;;;;;;;34.50;18.45;;;;;;;;;;5054223;28;20064;-86
2021/09/03 06:11:37;;;;;;;31.98;17.00;;;;;;;;;;5054861;28;20108;-86
2021/09/03 06:14:02;;;;;;;39.72;18.10;;;;;;;;;;5072106;28;20021;-86
2021/09/03 06:16:28;;;;;;;35.55;18.17;;;;;;;;;;5059811;28;20530;-86
2021/09/03 06:18:53;;;;;;;26.58;14.25;;;;;;;;;;5067351;28;20556;-86
2021/09/03 06:21:18;;;;;;;33.97;18.65;;;;;;;;;;5062040;28;20380;-86
2021/09/03 06:23:43;;;;;;;34.90;18.35;;;;;;;;;;5053049;28;20028;-86
2021/09/03 06:26:08;;;;;;;32.53;16.58;;;;;;;;;;5052901;28;20024;-86
2021/09/03 06:28:34;;;;;;;33.53;17.13;;;;;;;;;;5066824;28;20383;-86
2021/09/03 06:30:59;;;;;;;39.17;20.88;;;;;;;;;;5057993;28;20123;-86
2021/09/03 06:33:24;;;;;;;37.85;18.40;;;;;;;;;;5055499;28;20070;-87
2021/09/03 06:35:50;;;;;;;36.10;19.92;;;;;;;;;;5054574;28;20033;-86
2021/09/03 06:38:15;;;;;;;36.85;19.85;;;;;;;;;;5056240;28;20503;-86
2021/09/03 06:40:40;;;;;;;38.35;19.98;;;;;;;;;;5054305;28;20027;-86
2021/09/03 06:43:05;;;;;;;43.20;20.60;;;;;;;;;;5066740;28;20028;-86
2021/09/03 06:45:30;;;;;;;36.08;17.67;;;;;;;;;;5058176;28;20078;-86
2021/09/03 06:47:56;;;;;;;45.58;22.13;;;;;;;;;;5054330;28;20025;-86
2021/09/03 06:50:21;;;;;;;34.63;19.30;;;;;;;;;;5072236;28;20025;-87
2021/09/03 06:52:48;;;;;;;43.58;21.63;;;;;;;;;;5072645;28;20013;-87
2021/09/03 06:55:13;;;;;;;38.03;17.83;;;;;;;;;;5072552;28;20027;-86
2021/09/03 06:57:39;;;;;;;43.17;22.27;;;;;;;;;;5064187;28;20383;-86
2021/09/03 07:00:04;;;;;;;43.38;22.58;;;;;;;;;;5060752;28;20564;-86
2021/09/03 07:02:30;;;;;;;39.15;20.50;;;;;;;;;;5073636;28;20031;-86
2021/09/03 07:04:55;;;;;;;43.05;22.15;;;;;;;;;;5072382;28;20031;-87
2021/09/03 07:07:20;;;;;;;41.72;21.88;;;;;;;;;;5063351;28;20074;-86
2021/09/03 07:09:45;;;;;;;41.40;22.65;;;;;;;;;;5052745;28;20029;-86
2021/09/03 07:12:11;;;;;;;42.95;21.60;;;;;;;;;;5062034;28;20020;-86
2021/09/03 07:14:36;;;;;;;45.97;22.50;;;;;;;;;;5060243;28;20028;-86
2021/09/03 07:17:01;;;;;;;44.58;22.98;;;;;;;;;;5067080;28;20024;-86
2021/09/03 07:19:26;;;;;;;43.92;23.27;;;;;;;;;;5072312;28;20016;-87
2021/09/03 07:21:52;;;;;;;45.92;24.13;;;;;;;;;;5072328;28;20020;-86
2021/09/03 07:24:17;;;;;;;41.35;22.67;;;;;;;;;;5068357;28;20017;-86
2021/09/03 07:26:42;;;;;;;38.10;20.17;;;;;;;;;;5062863;28;20540;-86
2021/09/03 07:29:07;;;;;;;43.75;22.85;;;;;;;;;;5058451;28;20032;-87
2021/09/03 07:31:33;;;;;;;48.30;23.33;;;;;;;;;;5059366;28;20033;-86
2021/09/03 07:33:58;;;;;;;40.63;19.63;;;;;;;;;;5065117;28;20021;-86
2021/09/03 07:36:23;;;;;;;44.13;21.58;;;;;;;;;;5065847;28;20079;-85
2021/09/03 07:38:48;;;;;;;49.45;24.92;;;;;;;;;;5063866;28;20449;-87
2021/09/03 07:41:14;;;;;;;45.30;22.70;;;;;;;;;;5058304;28;20031;-87
2021/09/03 07:43:39;;;;;;;48.22;23.55;;;;;;;;;;5059704;28;20008;-87
2021/09/03 07:46:04;;;;;;;44.35;22.80;;;;;;;;;;5072145;28;20260;-87
2021/09/03 07:48:30;;;;;;;48.22;23.38;;;;;;;;;;5061056;28;20020;-87
2021/09/03 07:50:55;;;;;;;41.33;21.45;;;;;;;;;;5065856;28;20033;-87
2021/09/03 07:53:20;;;;;;;49.30;24.35;;;;;;;;;;5071276;28;20016;-87
2021/09/03 07:55:45;;;;;;;47.67;24.38;;;;;;;;;;5060474;28;20032;-87
2021/09/03 07:58:11;;;;;;;45.92;24.20;;;;;;;;;;5066427;28;20020;-87
2021/09/03 08:00:36;;;;;;;48.15;23.65;;;;;;;;;;5065973;28;20468;-87
2021/09/03 08:03:02;;;;;;;43.70;22.17;;;;;;;;;;5072913;28;20042;-87
2021/09/03 08:05:27;;;;;;;43.55;22.77;;;;;;;;;;5071704;28;20017;-86
2021/09/03 08:07:53;;;;;;;42.75;23.33;;;;;;;;;;5071696;28;20162;-87
2021/09/03 08:10:18;;;;;;;42.60;21.85;;;;;;;;;;5065828;28;20028;-87
2021/09/03 08:12:43;;;;;;;43.53;22.95;;;;;;;;;;5072165;28;20028;-87
2021/09/03 08:15:09;;;;;;;46.90;22.63;;;;;;;;;;5072817;28;20020;-87
2021/09/03 08:17:35;;;;;;;47.45;21.38;;;;;;;;;;5071558;28;20023;-87
2021/09/03 08:20:00;;;;;;;39.90;20.92;;;;;;;;;;5071793;28;20019;-87
2021/09/03 08:22:26;;;;;;;45.53;22.92;;;;;;;;;;5071175;28;20047;-87
2021/09/03 08:24:51;;;;;;;41.50;20.00;;;;;;;;;;5071756;28;20392;-87
2021/09/03 08:27:17;;;;;;;37.58;19.92;;;;;;;;;;5071496;28;20025;-87
2021/09/03 08:29:43;;;;;;;43.58;21.73;;;;;;;;;;5071626;28;20545;-87
2021/09/03 08:32:09;;;;;;;35.25;19.35;;;;;;;;;;5071467;28;20388;-87
2021/09/03 08:34:34;;;;;;;45.15;21.52;;;;;;;;;;5069338;28;20013;-86
2021/09/03 08:36:59;;;;;;;41.75;21.10;;;;;;;;;;5060864;28;20016;-87
2021/09/03 08:39:24;;;;;;;44.10;21.00;;;;;;;;;;5069911;28;20188;-87
2021/09/03 08:41:50;;;;;;;40.47;20.17;;;;;;;;;;5069229;28;20419;-87
2021/09/03 08:44:16;;;;;;;39.35;18.65;;;;;;;;;;5071323;28;20021;-87
2021/09/03 08:46:42;;;;;;;39.05;18.95;;;;;;;;;;5053803;28;20020;-87
2021/09/03 08:49:07;;;;;;;40.53;20.08;;;;;;;;;;5068851;28;20046;-87
2021/09/03 08:51:32;;;;;;;34.55;17.30;;;;;;;;;;5074854;28;20029;-87
2021/09/03 08:53:58;;;;;;;35.80;16.98;;;;;;;;;;5067780;28;20036;-87
2021/09/03 08:56:23;;;;;;;38.15;17.58;;;;;;;;;;5060441;28;20021;-87
2021/09/03 08:58:48;;;;;;;35.45;18.75;;;;;;;;;;5074118;28;20009;-87
2021/09/03 09:01:14;;;;;;;38.28;17.58;;;;;;;;;;5075253;28;20078;-87
2021/09/03 09:03:40;;;;;;;43.10;19.55;;;;;;;;;;5074875;28;20456;-87
2021/09/03 09:06:06;;;;;;;33.75;16.92;;;;;;;;;;5064742;28;20025;-87
2021/09/03 09:08:33;;;;;;;35.67;17.98;;;;;;;;;;5070014;28;20028;-87
2021/09/03 09:11:02;;;;;;;40.30;19.77;;;;;;;;;;5075045;28;20048;-87
2021/09/03 09:13:35;;;;;;;37.67;18.63;;;;;;;;;;5053856;28;20097;-86
2021/09/03 09:16:11;;;;;;;42.85;19.55;;;;;;;;;;5056746;28;20371;-87
2021/09/03 09:18:37;;;;;;;38.13;17.25;;;;;;;;;;5058058;28;20061;-87
2021/09/03 09:21:28;;;;;;;30.70;15.10;;;;;;;;;;5074916;28;20023;-87
2021/09/03 09:23:58;;;;;;;35.58;16.92;;;;;;;;;;5064327;28;20465;-87
2021/09/03 09:26:26;;;;;;;32.47;15.43;;;;;;;;;;5053588;28;20029;-87
2021/09/03 09:28:52;;;;;;;28.75;15.40;;;;;;;;;;5068822;28;20064;-87
2021/09/03 09:31:30;;;;;;;32.13;14.27;;;;;;;;;;5067723;28;20064;-87
2021/09/03 09:33:56;;;;;;;32.50;12.95;;;;;;;;;;5070463;28;20706;-84
2021/09/03 09:36:22;;;;;;;28.75;14.20;;;;;;;;;;5061600;28;20020;-84
2021/09/03 09:38:47;;;;;;;25.98;13.82;;;;;;;;;;5068262;28;20388;-84
2021/09/03 09:41:14;;;;;;;25.58;14.13;;;;;;;;;;5059382;28;20021;-83
2021/09/03 09:43:41;;;;;;;31.83;14.10;;;;;;;;;;5055848;28;20030;-84
2021/09/03 09:46:14;;;;;;;23.90;12.90;;;;;;;;;;5062789;28;20468;-84
2021/09/03 09:48:48;;;;;;;22.50;12.30;;;;;;;;;;5074794;28;20107;-84
2021/09/03 09:51:18;;;;;;;27.00;12.18;;;;;;;;;;5075474;28;20097;-84
2021/09/03 09:53:51;;;;;;;24.33;12.38;;;;;;;;;;5068148;28;20070;-84
2021/09/03 09:56:16;;;;;;;23.52;11.88;;;;;;;;;;5060365;28;20353;-84
2021/09/03 09:58:42;;;;;;;22.95;11.50;;;;;;;;;;5071395;28;20027;-84
2021/09/03 10:01:07;;;;;;;18.90;11.52;;;;;;;;;;5066318;28;20023;-85
2021/09/03 10:03:33;;;;;;;18.58;10.63;;;;;;;;;;5069764;28;20031;-85
2021/09/03 10:05:58;;;;;;;20.65;9.55;;;;;;;;;;5066660;28;20107;-84
2021/09/03 10:08:24;;;;;;;19.42;9.73;;;;;;;;;;5067574;28;20024;-84
2021/09/03 10:10:50;;;;;;;18.02;8.68;;;;;;;;;;5061066;28;20516;-84
2021/09/03 10:13:15;;;;;;;18.08;8.77;;;;;;;;;;5074510;28;20028;-84
2021/09/03 10:15:40;;;;;;;20.23;9.90;;;;;;;;;;5073231;28;20070;-84
2021/09/03 10:18:06;;;;;;;24.00;10.02;;;;;;;;;;5062467;28;20104;-84
2021/09/03 10:20:31;;;;;;;21.73;9.65;;;;;;;;;;5056464;28;20469;-84
2021/09/03 10:22:56;;;;;;;22.10;10.73;;;;;;;;;;5064861;28;20047;-84
2021/09/03 10:25:22;;;;;;;21.65;9.63;;;;;;;;;;5073199;28;20108;-84
2021/09/03 10:28:04;;;;;;;14.88;8.02;;;;;;;;;;5073127;28;20024;-84
2021/09/03 10:30:29;;;;;;;17.98;8.68;;;;;;;;;;5062523;28;20515;-84
2021/09/03 10:33:08;;;;;;;20.70;9.35;;;;;;;;;;5073071;28;20012;-84
2021/09/03 10:35:34;;;;;;;17.08;8.32;;;;;;;;;;5073283;28;20020;-84
2021/09/03 10:37:59;;;;;;;17.67;9.25;;;;;;;;;;5071338;28;20453;-84
2021/09/03 10:40:26;;;;;;;15.05;8.15;;;;;;;;;;5073048;28;20021;-84
2021/09/03 10:42:55;;;;;;;12.93;7.13;;;;;;;;;;5064392;28;20017;-84
2021/09/03 10:45:24;;;;;;;16.55;8.30;;;;;;;;;;5045778;28;20020;-84
2021/09/03 10:47:55;;;;;;;17.95;7.70;;;;;;;;;;5068172;28;20474;-84
2021/09/03 10:50:21;;;;;;;14.97;7.20;;;;;;;;;;5073928;28;20022;-83
2021/09/03 10:53:12;;;;;;;15.02;7.43;;;;;;;;;;5074233;28;20923;-84
2021/09/03 10:55:57;;;;;;;15.32;6.57;;;;;;;;;;5071248;28;20032;-84
2021/09/03 10:58:42;;;;;;;11.23;6.60;;;;;;;;;;5060275;28;20048;-84
2021/09/03 11:01:11;;;;;;;13.77;6.80;;;;;;;;;;5072364;28;20034;-84
2021/09/03 11:03:45;;;;;;;13.55;7.07;;;;;;;;;;5069909;28;20021;-84
2021/09/03 11:06:13;;;;;;;11.38;6.60;;;;;;;;;;5063777;28;20402;-84
2021/09/03 11:08:43;;;;;;;14.60;6.70;;;;;;;;;;5069959;28;20031;-84
2021/09/03 11:11:23;;;;;;;13.23;7.07;;;;;;;;;;5061079;28;20016;-84
2021/09/03 11:13:50;;;;;;;11.18;6.70;;;;;;;;;;5063756;28;20108;-84
2021/09/03 11:16:30;;;;;;;11.13;7.00;;;;;;;;;;5053736;28;20032;-84
2021/09/03 11:18:59;;;;;;;13.50;6.78;;;;;;;;;;5058705;28;21352;-84
2021/09/03 11:21:38;;;;;;;12.70;6.30;;;;;;;;;;5062228;28;20151;-84
2021/09/03 11:24:03;;;;;;;17.27;6.70;;;;;;;;;;5063055;28;20076;-84
2021/09/03 11:26:29;;;;;;;12.52;6.90;;;;;;;;;;5072359;28;20468;-84
2021/09/03 11:28:58;;;;;;;12.82;7.10;;;;;;;;;;5061903;28;20017;-84
2021/09/03 11:31:23;;;;;;;11.13;6.32;;;;;;;;;;5072287;28;20028;-84
2021/09/03 11:33:48;;;;;;;13.93;7.13;;;;;;;;;;5072089;28;20499;-84
2021/09/03 11:36:14;;;;;;;14.50;7.00;;;;;;;;;;5059361;28;20017;-84
2021/09/03 11:38:39;;;;;;;15.30;7.47;;;;;;;;;;5072079;28;20100;-84
2021/09/03 11:41:11;;;;;;;12.05;6.88;;;;;;;;;;5072197;28;20069;-84
2021/09/03 11:43:36;;;;;;;10.25;6.13;;;;;;;;;;5072834;28;20020;-84
2021/09/03 11:46:14;;;;;;;14.93;6.78;;;;;;;;;;5052366;28;20037;-84
2021/09/03 11:48:39;;;;;;;13.05;5.82;;;;;;;;;;5072538;28;20016;-84
2021/09/03 11:51:04;;;;;;;15.88;7.22;;;;;;;;;;5070053;28;20103;-84
2021/09/03 11:53:29;;;;;;;16.05;6.82;;;;;;;;;;5072991;28;20372;-84
2021/09/03 11:55:54;;;;;;;10.02;5.55;;;;;;;;;;5073098;28;20641;-84
2021/09/03 11:58:21;;;;;;;13.73;6.30;;;;;;;;;;5066076;28;20029;-84
2021/09/03 12:00:48;;;;;;;10.10;6.10;;;;;;;;;;5071905;28;20439;-84
2021/09/03 12:03:14;;;;;;;14.05;6.68;;;;;;;;;;5072916;28;20013;-84
2021/09/03 12:05:41;;;;;;;12.73;6.68;;;;;;;;;;5058773;28;20056;-84
2021/09/03 12:08:08;;;;;;;13.50;7.00;;;;;;;;;;5060734;28;20027;-84
2021/09/03 12:10:34;;;;;;;12.95;6.20;;;;;;;;;;5064776;28;20027;-84
2021/09/03 12:13:10;;;;;;;16.15;6.18;;;;;;;;;;5062565;28;20380;-84
2021/09/03 12:15:35;;;;;;;13.02;6.15;;;;;;;;;;5071756;28;20028;-84
2021/09/03 12:18:02;;;;;;;14.05;6.40;;;;;;;;;;5060685;28;20012;-85
2021/09/03 12:20:28;;;;;;;15.00;6.50;;;;;;;;;;5066347;28;20017;-84
2021/09/03 12:22:54;;;;;;;10.93;5.88;;;;;;;;;;5052634;28;20025;-84
2021/09/03 12:25:30;;;;;;;9.98;5.82;;;;;;;;;;5051812;28;20025;-84
2021/09/03 12:28:05;;;;;;;11.10;6.10;;;;;;;;;;5048397;28;20031;-84
2021/09/03 12:30:31;;;;;;;11.88;6.22;;;;;;;;;;5065889;28;20476;-84
2021/09/03 12:33:16;;;;;;;12.90;6.53;;;;;;;;;;5057572;28;20020;-84
2021/09/03 12:35:43;;;;;;;11.93;5.93;;;;;;;;;;5060822;28;20056;-84
2021/09/03 12:38:08;;;;;;;12.88;5.88;;;;;;;;;;5054277;28;20016;-84
2021/09/03 12:40:33;;;;;;;9.73;5.53;;;;;;;;;;5052669;28;20381;-84
2021/09/03 12:42:58;;;;;;;8.98;4.75;;;;;;;;;;5067400;28;20017;-84
2021/09/03 12:45:40;;;;;;;10.93;6.18;;;;;;;;;;5072706;28;20024;-84
2021/09/03 12:48:05;;;;;;;10.25;5.72;;;;;;;;;;5068080;28;20484;-84
2021/09/03 12:50:32;;;;;;;12.40;6.07;;;;;;;;;;5059486;28;20013;-84
2021/09/03 12:52:57;;;;;;;10.25;6.05;;;;;;;;;;5057500;28;20495;-84
2021/09/03 12:55:22;;;;;;;10.15;5.55;;;;;;;;;;5057377;28;20075;-84
2021/09/03 12:57:47;;;;;;;9.27;5.55;;;;;;;;;;5053116;28;20024;-84
2021/09/03 13:00:13;;;;;;;10.98;5.20;;;;;;;;;;5067818;28;20467;-84
2021/09/03 13:02:38;;;;;;;15.18;6.18;;;;;;;;;;5063367;28;20020;-84
2021/09/03 13:05:04;;;;;;;10.68;6.07;;;;;;;;;;5065526;28;20426;-84
2021/09/03 13:07:29;;;;;;;11.07;4.95;;;;;;;;;;5067907;28;20025;-84
2021/09/03 13:09:54;;;;;;;10.93;5.60;;;;;;;;;;5066626;28;20017;-84
2021/09/03 13:12:20;;;;;;;9.77;4.85;;;;;;;;;;5068822;28;20079;-84
2021/09/03 13:14:45;;;;;;;10.35;5.10;;;;;;;;;;5072557;28;20523;-84
2021/09/03 13:17:10;;;;;;;7.18;4.20;;;;;;;;;;5071964;28;20044;-84
2021/09/03 13:19:35;;;;;;;10.15;4.93;;;;;;;;;;5072449;28;20472;-84
2021/09/03 13:22:00;;;;;;;12.07;5.50;;;;;;;;;;5054745;28;20021;-83
2021/09/03 13:24:26;;;;;;;11.40;5.22;;;;;;;;;;5070435;28;20044;-84
2021/09/03 13:26:51;;;;;;;10.15;5.10;;;;;;;;;;5059203;28;20025;-84
2021/09/03 13:29:17;;;;;;;9.00;4.93;;;;;;;;;;5068888;28;20021;-84
2021/09/03 13:31:42;;;;;;;12.00;5.10;;;;;;;;;;5072161;28;20020;-85
2021/09/03 13:34:07;;;;;;;10.73;5.28;;;;;;;;;;5075486;28;20069;-84
2021/09/03 13:36:34;;;;;;;7.82;4.72;;;;;;;;;;5074452;28;20021;-84
2021/09/03 13:39:00;;;;;;;10.18;4.72;;;;;;;;;;5075488;28;20403;-84
2021/09/03 13:41:26;;;;;;;11.25;5.10;;;;;;;;;;5070131;28;20024;-84
2021/09/03 13:43:51;;;;;;;7.63;4.82;;;;;;;;;;5063083;28;20024;-84
2021/09/03 13:46:16;;;;;;;10.75;4.88;;;;;;;;;;5074325;28;20024;-84
2021/09/03 13:48:43;;;;;;;9.35;5.45;;;;;;;;;;5073968;28;20024;-84
2021/09/03 13:51:08;;;;;;;11.52;5.45;;;;;;;;;;5075254;28;20029;-84
2021/09/03 13:53:34;;;;;;;9.68;5.57;;;;;;;;;;5074978;28;20046;-84
2021/09/03 13:56:00;;;;;;;7.82;5.53;;;;;;;;;;5072595;28;20102;-84
2021/09/03 13:58:25;;;;;;;10.25;5.38;;;;;;;;;;5057986;28;20021;-84
2021/09/03 14:00:50;;;;;;;12.20;5.40;;;;;;;;;;5064305;28;20062;-84
2021/09/03 14:03:16;;;;;;;12.55;5.70;;;;;;;;;;5075256;28;20032;-84
2021/09/03 14:05:41;;;;;;;11.25;5.20;;;;;;;;;;5075343;28;20569;-84
2021/09/03 14:08:08;;;;;;;10.05;4.85;;;;;;;;;;5065617;28;20021;-83
2021/09/03 14:10:33;;;;;;;9.65;4.95;;;;;;;;;;5068295;28;20610;-84
2021/09/03 14:12:58;;;;;;;9.27;5.18;;;;;;;;;;5055025;28;20092;-84
2021/09/03 14:15:24;;;;;;;10.68;5.07;;;;;;;;;;5065413;28;20021;-84